createdAt,value
2019-04-28T00:00:48.458Z,0.00
2019-04-28T00:01:48.415Z,0.00
2019-04-28T00:02:48.276Z,0.00
2019-04-28T00:03:48.161Z,0.00
2019-04-28T00:04:48.060Z,0.00
2019-04-28T00:05:48.066Z,0.00
2019-04-28T00:06:47.868Z,0.00
2019-04-28T00:07:47.778Z,0.00
2019-04-28T00:08:47.669Z,0.00
2019-04-28T00:09:47.568Z,0.00
2019-04-28T00:10:47.468Z,0.00
2019-04-28T00:11:47.371Z,0.00
2019-04-28T00:12:47.395Z,0.00
2019-04-28T00:13:47.171Z,0.00
2019-04-28T00:14:47.073Z,0.00
2019-04-28T00:15:46.974Z,0.00
2019-04-28T00:16:46.874Z,0.00
2019-04-28T00:17:46.791Z,0.00
2019-04-28T00:18:46.678Z,0.00
2019-04-28T00:19:46.692Z,0.00
2019-04-28T00:20:46.479Z,0.00
2019-04-28T00:21:46.381Z,0.00
2019-04-28T00:22:46.295Z,0.00
2019-04-28T00:23:46.182Z,0.00
2019-04-28T00:24:46.084Z,0.00
2019-04-28T00:25:45.987Z,0.00
2019-04-28T00:26:45.991Z,0.00
2019-04-28T00:27:45.803Z,0.00
2019-04-28T00:28:45.692Z,0.00
2019-04-28T00:29:46.310Z,0.00
2019-04-28T00:30:45.489Z,0.00
2019-04-28T00:31:45.394Z,0.00
2019-04-28T00:32:45.311Z,0.00
2019-04-28T00:33:45.298Z,0.00
2019-04-28T00:34:45.097Z,0.00
2019-04-28T00:35:44.997Z,0.00
2019-04-28T00:36:44.899Z,0.00
2019-04-28T00:37:44.813Z,0.00
2019-04-28T00:38:44.700Z,0.00
2019-04-28T00:39:44.602Z,0.00
2019-04-28T00:40:44.610Z,0.00
2019-04-28T00:41:44.411Z,0.00
2019-04-28T00:42:44.318Z,0.00
2019-04-28T00:43:44.205Z,0.00
2019-04-28T00:44:44.110Z,0.00
2019-04-28T00:45:44.009Z,0.00
2019-04-28T00:46:43.916Z,0.00
2019-04-28T00:47:43.936Z,0.00
2019-04-28T00:48:43.721Z,0.00
2019-04-28T00:49:43.613Z,0.00
2019-04-28T00:50:43.781Z,0.00
2019-04-28T00:51:43.417Z,0.00
2019-04-28T00:52:43.319Z,0.00
2019-04-28T00:53:43.241Z,0.00
2019-04-28T00:54:43.224Z,0.00
2019-04-28T00:55:43.024Z,0.00
2019-04-28T00:56:42.923Z,0.00
2019-04-28T00:57:42.822Z,0.00
2019-04-28T00:58:42.740Z,0.00
2019-04-28T00:59:53.998Z,0.00
2019-04-28T01:00:42.657Z,0.00
2019-04-28T01:01:42.606Z,0.00
2019-04-28T01:02:42.330Z,0.00
2019-04-28T01:03:43.486Z,0.00
2019-04-28T01:04:42.132Z,0.00
2019-04-28T01:05:42.041Z,0.00
2019-04-28T01:06:43.057Z,0.00
2019-04-28T01:07:41.837Z,0.00
2019-04-28T01:08:41.961Z,0.00
2019-04-28T01:09:41.699Z,0.00
2019-04-28T01:10:41.536Z,0.00
2019-04-28T01:11:41.557Z,0.00
2019-04-28T01:12:41.340Z,0.00
2019-04-28T01:13:41.961Z,0.00
2019-04-28T01:14:43.386Z,0.00
2019-04-28T01:15:41.044Z,0.00
2019-04-28T01:16:40.945Z,0.00
2019-04-28T01:17:40.846Z,0.00
2019-04-28T01:18:40.763Z,0.00
2019-04-28T01:19:40.647Z,0.00
2019-04-28T01:20:40.561Z,0.00
2019-04-28T01:21:41.603Z,0.00
2019-04-28T01:22:40.364Z,0.00
2019-04-28T01:23:40.355Z,0.00
2019-04-28T01:24:40.154Z,0.00
2019-04-28T01:25:40.209Z,0.00
2019-04-28T01:26:41.661Z,0.00
2019-04-28T01:27:40.282Z,0.00
2019-04-28T01:28:39.930Z,0.00
2019-04-28T01:29:40.309Z,0.00
2019-04-28T01:30:40.143Z,0.00
2019-04-28T01:31:39.681Z,0.00
2019-04-28T01:32:39.931Z,0.00
2019-04-28T01:33:40.631Z,0.00
2019-04-28T01:34:40.032Z,0.00
2019-04-28T01:35:39.669Z,0.00
2019-04-28T01:36:40.004Z,0.00
2019-04-28T01:37:40.597Z,0.00
2019-04-28T01:38:40.175Z,0.00
2019-04-28T01:39:41.014Z,0.00
2019-04-28T01:40:38.579Z,0.00
2019-04-28T01:41:39.714Z,0.00
2019-04-28T01:42:38.372Z,0.00
2019-04-28T01:43:38.278Z,0.00
2019-04-28T01:44:39.538Z,0.00
2019-04-28T01:45:39.778Z,0.00
2019-04-28T01:46:39.739Z,0.00
2019-04-28T01:47:37.879Z,0.00
2019-04-28T01:48:39.455Z,0.00
2019-04-28T01:49:37.695Z,0.00
2019-04-28T01:50:37.582Z,0.00
2019-04-28T01:51:37.484Z,0.00
2019-04-28T01:52:37.385Z,0.00
2019-04-28T01:53:37.286Z,0.00
2019-04-28T01:54:37.201Z,0.00
2019-04-28T01:55:37.087Z,0.00
2019-04-28T01:56:36.989Z,0.00
2019-04-28T01:57:36.892Z,0.00
2019-04-28T01:58:36.793Z,0.00
2019-04-28T01:59:36.706Z,0.00
2019-04-28T02:00:36.594Z,0.00
2019-04-28T02:01:36.496Z,0.00
2019-04-28T02:02:36.398Z,0.00
2019-04-28T02:03:36.301Z,0.00
2019-04-28T02:04:36.213Z,0.00
2019-04-28T02:05:36.100Z,0.00
2019-04-28T02:06:36.003Z,0.00
2019-04-28T02:07:35.900Z,0.00
2019-04-28T02:08:35.802Z,0.00
2019-04-28T02:09:35.717Z,0.00
2019-04-28T02:10:35.603Z,0.00
2019-04-28T02:11:35.506Z,0.00
2019-04-28T02:12:35.409Z,0.00
2019-04-28T02:13:35.307Z,0.00
2019-04-28T02:14:35.224Z,0.00
2019-04-28T02:15:35.115Z,0.00
2019-04-28T02:16:35.011Z,0.00
2019-04-28T02:17:35.016Z,0.00
2019-04-28T02:18:34.812Z,0.00
2019-04-28T02:19:34.728Z,0.00
2019-04-28T02:20:34.618Z,0.00
2019-04-28T02:21:34.517Z,0.00
2019-04-28T02:22:34.416Z,0.00
2019-04-28T02:23:34.322Z,0.00
2019-04-28T02:24:34.341Z,0.00
2019-04-28T02:25:34.121Z,0.00
2019-04-28T02:26:34.020Z,0.00
2019-04-28T02:27:33.922Z,0.00
2019-04-28T02:28:33.827Z,0.00
2019-04-28T02:29:33.741Z,0.00
2019-04-28T02:30:47.783Z,0.00
2019-04-28T02:31:33.633Z,0.00
2019-04-28T02:32:33.431Z,0.00
2019-04-28T02:33:33.331Z,0.00
2019-04-28T02:34:33.230Z,0.00
2019-04-28T02:35:34.141Z,0.00
2019-04-28T02:36:33.030Z,0.00
2019-04-28T02:37:32.952Z,0.00
2019-04-28T02:38:34.365Z,0.00
2019-04-28T02:39:32.736Z,0.00
2019-04-28T02:40:32.656Z,0.00
2019-04-28T02:41:33.875Z,0.00
2019-04-28T02:42:32.435Z,0.00
2019-04-28T02:43:32.338Z,0.00
2019-04-28T02:44:34.943Z,0.00
2019-04-28T02:45:32.155Z,0.00
2019-04-28T02:46:32.039Z,0.00
2019-04-28T02:47:34.038Z,0.00
2019-04-28T02:48:31.842Z,0.00
2019-04-28T02:49:31.744Z,0.00
2019-04-28T02:50:33.098Z,0.00
2019-04-28T02:51:31.543Z,0.00
2019-04-28T02:52:31.453Z,0.00
2019-04-28T02:53:33.786Z,0.00
2019-04-28T02:54:31.250Z,0.00
2019-04-28T02:55:31.789Z,0.00
2019-04-28T02:56:31.045Z,0.00
2019-04-28T02:57:30.946Z,0.00
2019-04-28T02:58:31.364Z,0.00
2019-04-28T02:59:30.751Z,0.00
2019-04-28T03:00:31.777Z,0.00
2019-04-28T03:01:30.920Z,0.00
2019-04-28T03:02:31.981Z,0.00
2019-04-28T03:03:30.877Z,0.00
2019-04-28T03:04:30.952Z,0.00
2019-04-28T03:05:30.285Z,0.00
2019-04-28T03:06:30.711Z,0.00
2019-04-28T03:07:31.303Z,0.00
2019-04-28T03:08:30.655Z,0.00
2019-04-28T03:09:30.616Z,0.00
2019-04-28T03:10:31.047Z,0.00
2019-04-28T03:11:31.467Z,0.00
2019-04-28T03:12:31.490Z,0.00
2019-04-28T03:13:31.107Z,0.00
2019-04-28T03:14:30.455Z,0.00
2019-04-28T03:15:30.326Z,0.00
2019-04-28T03:16:30.415Z,0.00
2019-04-28T03:17:30.936Z,0.00
2019-04-28T03:18:31.406Z,0.00
2019-04-28T03:19:33.760Z,0.00
2019-04-28T03:20:30.566Z,0.00
2019-04-28T03:21:31.081Z,0.00
2019-04-28T03:22:32.993Z,0.00
2019-04-28T03:23:31.137Z,0.00
2019-04-28T03:24:31.304Z,0.00
2019-04-28T03:25:30.610Z,0.00
2019-04-28T03:26:28.066Z,0.00
2019-04-28T03:27:30.799Z,0.00
2019-04-28T03:28:27.975Z,0.00
2019-04-28T03:29:27.770Z,4.00
2019-04-28T03:30:27.685Z,4.00
2019-04-28T03:31:51.123Z,4.00
2019-04-28T03:32:39.717Z,4.00
2019-04-28T03:33:27.372Z,4.00
2019-04-28T03:34:27.277Z,4.00
2019-04-28T03:35:27.289Z,4.00
2019-04-28T03:36:27.110Z,8.00
2019-04-28T03:37:26.976Z,8.00
2019-04-28T03:38:26.873Z,8.00
2019-04-28T03:39:26.776Z,12.00
2019-04-28T03:40:26.690Z,12.00
2019-04-28T03:41:26.593Z,16.00
2019-04-28T03:42:26.582Z,20.00
2019-04-28T03:43:26.383Z,24.00
2019-04-28T03:44:26.296Z,24.00
2019-04-28T03:45:26.181Z,28.00
2019-04-28T03:46:26.093Z,40.00
2019-04-28T03:47:25.985Z,56.00
2019-04-28T03:48:25.887Z,60.00
2019-04-28T03:49:25.891Z,52.00
2019-04-28T03:50:25.683Z,48.00
2019-04-28T03:51:25.597Z,64.00
2019-04-28T03:52:25.483Z,72.00
2019-04-28T03:53:25.384Z,88.00
2019-04-28T03:54:25.290Z,76.00
2019-04-28T03:55:25.185Z,100.00
2019-04-28T03:56:25.211Z,132.00
2019-04-28T03:57:24.985Z,144.00
2019-04-28T03:58:24.887Z,160.00
2019-04-28T03:59:24.802Z,164.00
2019-04-28T04:00:24.692Z,156.00
2019-04-28T04:01:24.604Z,140.00
2019-04-28T04:02:24.593Z,132.00
2019-04-28T04:03:24.388Z,132.00
2019-04-28T04:04:24.296Z,168.00
2019-04-28T04:05:24.191Z,208.00
2019-04-28T04:06:24.106Z,228.00
2019-04-28T04:07:23.992Z,264.00
2019-04-28T04:08:23.895Z,308.00
2019-04-28T04:09:24.283Z,344.00
2019-04-28T04:10:23.697Z,332.00
2019-04-28T04:11:23.611Z,316.00
2019-04-28T04:12:23.498Z,316.00
2019-04-28T04:13:23.394Z,320.00
2019-04-28T04:14:23.295Z,328.00
2019-04-28T04:15:23.197Z,332.00
2019-04-28T04:16:23.117Z,340.00
2019-04-28T04:17:23.000Z,352.00
2019-04-28T04:18:22.900Z,360.00
2019-04-28T04:19:22.798Z,344.00
2019-04-28T04:20:23.763Z,352.00
2019-04-28T04:21:22.606Z,336.00
2019-04-28T04:22:22.522Z,344.00
2019-04-28T04:23:23.335Z,336.00
2019-04-28T04:24:22.304Z,352.00
2019-04-28T04:25:22.204Z,348.00
2019-04-28T04:26:22.107Z,344.00
2019-04-28T04:27:22.020Z,364.00
2019-04-28T04:28:21.905Z,424.00
2019-04-28T04:29:21.856Z,436.00
2019-04-28T04:30:21.708Z,420.00
2019-04-28T04:31:21.617Z,412.00
2019-04-28T04:32:26.738Z,444.00
2019-04-28T04:33:21.410Z,504.00
2019-04-28T04:34:21.305Z,492.00
2019-04-28T04:35:21.519Z,564.00
2019-04-28T04:36:21.409Z,532.00
2019-04-28T04:37:21.038Z,548.00
2019-04-28T04:38:21.747Z,544.00
2019-04-28T04:39:20.878Z,532.00
2019-04-28T04:40:21.043Z,660.00
2019-04-28T04:41:20.614Z,876.00
2019-04-28T04:42:20.604Z,996.00
2019-04-28T04:43:21.074Z,1192.00
2019-04-28T04:44:21.065Z,1348.00
2019-04-28T04:45:20.347Z,1400.00
2019-04-28T04:46:21.975Z,1332.00
2019-04-28T04:47:21.029Z,1520.00
2019-04-28T04:48:21.563Z,1628.00
2019-04-28T04:49:21.561Z,1572.00
2019-04-28T04:50:20.940Z,1644.00
2019-04-28T04:51:21.219Z,1780.00
2019-04-28T04:52:20.314Z,1844.00
2019-04-28T04:53:20.834Z,1944.00
2019-04-28T04:54:20.443Z,1988.00
2019-04-28T04:55:21.174Z,1912.00
2019-04-28T04:56:21.046Z,1696.00
2019-04-28T04:57:20.724Z,1408.00
2019-04-28T04:58:21.233Z,1400.00
2019-04-28T04:59:20.228Z,1524.00
2019-04-28T05:00:20.791Z,1428.00
2019-04-28T05:01:20.370Z,1460.00
2019-04-28T05:02:26.726Z,1576.00
2019-04-28T05:03:21.128Z,1304.00
2019-04-28T05:04:19.700Z,1300.00
2019-04-28T05:05:18.225Z,1552.00
2019-04-28T05:06:19.875Z,1796.00
2019-04-28T05:07:19.565Z,1700.00
2019-04-28T05:08:17.927Z,1956.00
2019-04-28T05:09:19.533Z,2284.00
2019-04-28T05:10:17.727Z,2388.00
2019-04-28T05:11:17.627Z,2296.00
2019-04-28T05:12:19.514Z,2872.00
2019-04-28T05:13:17.430Z,2884.00
2019-04-28T05:14:17.335Z,3088.00
2019-04-28T05:15:17.232Z,3164.00
2019-04-28T05:16:17.130Z,3184.00
2019-04-28T05:17:17.046Z,3244.00
2019-04-28T05:18:16.932Z,3272.00
2019-04-28T05:19:16.941Z,3224.00
2019-04-28T05:20:16.734Z,3268.00
2019-04-28T05:21:16.635Z,3364.00
2019-04-28T05:22:16.551Z,3648.00
2019-04-28T05:23:16.435Z,3908.00
2019-04-28T05:24:17.508Z,3728.00
2019-04-28T05:25:16.236Z,3108.00
2019-04-28T05:26:16.241Z,3216.00
2019-04-28T05:27:17.412Z,3100.00
2019-04-28T05:28:15.938Z,2648.00
2019-04-28T05:29:19.967Z,2456.00
2019-04-28T05:30:15.740Z,2492.00
2019-04-28T05:31:22.705Z,2444.00
2019-04-28T05:32:15.543Z,2404.00
2019-04-28T05:33:15.561Z,2324.00
2019-04-28T05:34:15.342Z,2536.00
2019-04-28T05:35:17.454Z,3060.00
2019-04-28T05:36:15.146Z,3532.00
2019-04-28T05:37:15.046Z,3352.00
2019-04-28T05:38:14.960Z,3344.00
2019-04-28T05:39:14.876Z,3532.00
2019-04-28T05:40:14.894Z,3672.00
2019-04-28T05:41:14.646Z,3560.00
2019-04-28T05:42:14.549Z,3468.00
2019-04-28T05:43:14.465Z,3680.00
2019-04-28T05:44:14.350Z,3816.00
2019-04-28T05:45:14.249Z,3824.00
2019-04-28T05:46:14.152Z,3396.00
2019-04-28T05:47:14.162Z,3736.00
2019-04-28T05:48:13.968Z,3840.00
2019-04-28T05:49:13.853Z,3664.00
2019-04-28T05:50:13.753Z,3608.00
2019-04-28T05:51:13.654Z,3508.00
2019-04-28T05:52:13.556Z,3276.00
2019-04-28T05:53:13.473Z,3564.00
2019-04-28T05:54:13.462Z,3368.00
2019-04-28T05:55:13.259Z,3184.00
2019-04-28T05:56:13.158Z,3840.00
2019-04-28T05:57:13.061Z,3708.00
2019-04-28T05:58:12.996Z,3872.00
2019-04-28T05:59:12.863Z,3896.00
2019-04-28T06:00:12.765Z,3456.00
2019-04-28T06:01:12.769Z,3308.00
2019-04-28T06:02:12.565Z,3136.00
2019-04-28T06:03:12.480Z,3384.00
2019-04-28T06:04:12.366Z,3400.00
2019-04-28T06:05:12.267Z,3380.00
2019-04-28T06:06:12.167Z,3300.00
2019-04-28T06:07:12.068Z,3476.00
2019-04-28T06:08:12.106Z,3456.00
2019-04-28T06:09:11.871Z,4068.00
2019-04-28T06:10:12.478Z,4088.00
2019-04-28T06:11:12.042Z,4768.00
2019-04-28T06:12:11.573Z,5108.00
2019-04-28T06:13:11.492Z,4756.00
2019-04-28T06:14:11.511Z,5036.00
2019-04-28T06:15:12.008Z,5072.00
2019-04-28T06:16:11.177Z,5040.00
2019-04-28T06:17:11.079Z,5104.00
2019-04-28T06:18:10.996Z,4820.00
2019-04-28T06:19:10.883Z,4480.00
2019-04-28T06:20:11.818Z,5132.00
2019-04-28T06:21:10.683Z,5572.00
2019-04-28T06:22:10.691Z,4852.00
2019-04-28T06:23:10.489Z,4916.00
2019-04-28T06:24:10.401Z,5120.00
2019-04-28T06:25:10.290Z,5076.00
2019-04-28T06:26:10.191Z,4824.00
2019-04-28T06:27:10.104Z,4496.00
2019-04-28T06:28:09.993Z,4216.00
2019-04-28T06:29:10.015Z,4288.00
2019-04-28T06:30:09.795Z,4276.00
2019-04-28T06:31:09.693Z,3792.00
2019-04-28T06:32:09.600Z,3956.00
2019-04-28T06:33:09.501Z,4488.00
2019-04-28T06:34:09.413Z,4820.00
2019-04-28T06:35:09.404Z,5128.00
2019-04-28T06:36:09.204Z,5668.00
2019-04-28T06:37:09.101Z,4832.00
2019-04-28T06:38:09.004Z,4920.00
2019-04-28T06:39:08.918Z,4808.00
2019-04-28T06:40:08.803Z,4396.00
2019-04-28T06:41:08.704Z,4308.00
2019-04-28T06:42:08.607Z,4564.00
2019-04-28T06:43:08.506Z,5024.00
2019-04-28T06:44:08.423Z,4720.00
2019-04-28T06:45:08.308Z,4432.00
2019-04-28T06:46:08.226Z,4224.00
2019-04-28T06:47:08.111Z,4144.00
2019-04-28T06:48:08.010Z,3980.00
2019-04-28T06:49:07.930Z,4024.00
2019-04-28T06:50:07.814Z,3936.00
2019-04-28T06:51:07.716Z,3888.00
2019-04-28T06:52:07.615Z,4044.00
2019-04-28T06:53:07.518Z,4560.00
2019-04-28T06:54:07.433Z,4628.00
2019-04-28T06:55:07.321Z,4384.00
2019-04-28T06:56:07.221Z,4416.00
2019-04-28T06:57:07.123Z,4504.00
2019-04-28T06:58:07.021Z,4224.00
2019-04-28T06:59:06.937Z,4300.00
2019-04-28T07:00:06.830Z,4440.00
2019-04-28T07:01:06.727Z,4868.00
2019-04-28T07:02:06.626Z,5028.00
2019-04-28T07:03:09.198Z,5384.00
2019-04-28T07:04:06.444Z,5680.00
2019-04-28T07:05:06.333Z,5664.00
2019-04-28T07:06:06.231Z,5608.00
2019-04-28T07:07:06.131Z,5624.00
2019-04-28T07:08:06.033Z,5436.00
2019-04-28T07:09:05.955Z,5428.00
2019-04-28T07:10:05.835Z,5968.00
2019-04-28T07:11:05.738Z,6448.00
2019-04-28T07:12:05.688Z,6636.00
2019-04-28T07:13:05.540Z,6660.00
2019-04-28T07:14:05.462Z,6376.00
2019-04-28T07:15:05.358Z,6556.00
2019-04-28T07:16:05.241Z,6936.00
2019-04-28T07:17:05.144Z,7224.00
2019-04-28T07:18:05.043Z,7772.00
2019-04-28T07:19:04.960Z,8240.00
2019-04-28T07:20:04.858Z,8556.00
2019-04-28T07:21:04.750Z,8644.00
2019-04-28T07:22:04.649Z,8472.00
2019-04-28T07:23:04.551Z,8160.00
2019-04-28T07:24:04.467Z,7512.00
2019-04-28T07:25:04.352Z,6832.00
2019-04-28T07:26:04.253Z,5908.00
2019-04-28T07:27:04.154Z,5840.00
2019-04-28T07:28:04.057Z,6032.00
2019-04-28T07:29:03.980Z,5604.00
2019-04-28T07:30:03.864Z,5848.00
2019-04-28T07:31:03.761Z,5916.00
2019-04-28T07:32:03.663Z,5508.00
2019-04-28T07:33:03.564Z,5248.00
2019-04-28T07:34:03.479Z,5012.00
2019-04-28T07:35:03.365Z,4644.00
2019-04-28T07:36:03.268Z,4572.00
2019-04-28T07:37:03.169Z,4408.00
2019-04-28T07:38:03.073Z,4144.00
2019-04-28T07:39:02.977Z,4136.00
2019-04-28T07:40:02.888Z,3960.00
2019-04-28T07:41:02.775Z,3964.00
2019-04-28T07:42:02.678Z,4436.00
2019-04-28T07:43:02.579Z,5300.00
2019-04-28T07:44:02.480Z,5912.00
2019-04-28T07:45:02.401Z,6124.00
2019-04-28T07:46:02.280Z,6304.00
2019-04-28T07:47:02.188Z,6136.00
2019-04-28T07:48:02.085Z,5780.00
2019-04-28T07:49:01.987Z,5920.00
2019-04-28T07:50:01.900Z,6588.00
2019-04-28T07:51:01.788Z,6628.00
2019-04-28T07:52:01.804Z,7112.00
2019-04-28T07:53:01.595Z,8304.00
2019-04-28T07:54:04.628Z,8428.00
2019-04-28T07:55:01.411Z,8624.00
2019-04-28T07:56:01.295Z,8500.00
2019-04-28T07:57:01.198Z,8844.00
2019-04-28T07:58:01.099Z,9088.00
2019-04-28T07:59:01.001Z,9588.00
2019-04-28T08:00:00.917Z,11140.00
2019-04-28T08:01:00.808Z,12344.00
2019-04-28T08:02:00.704Z,12528.00
2019-04-28T08:03:00.604Z,12740.00
2019-04-28T08:04:00.505Z,14428.00
2019-04-28T08:05:00.424Z,15272.00
2019-04-28T08:06:00.419Z,14256.00
2019-04-28T08:07:00.210Z,13572.00
2019-04-28T08:08:00.110Z,11808.00
2019-04-28T08:09:02.394Z,10724.00
2019-04-28T08:09:59.930Z,10196.00
2019-04-28T08:10:59.816Z,9556.00
2019-04-28T08:11:59.720Z,9144.00
2019-04-28T08:12:59.636Z,9212.00
2019-04-28T08:13:59.817Z,9312.00
2019-04-28T08:14:59.438Z,8668.00
2019-04-28T08:15:59.324Z,8284.00
2019-04-28T08:16:59.229Z,8780.00
2019-04-28T08:17:59.130Z,8832.00
2019-04-28T08:18:59.032Z,10404.00
2019-04-28T08:19:58.948Z,10472.00
2019-04-28T08:20:58.939Z,9356.00
2019-04-28T08:21:58.735Z,9708.00
2019-04-28T08:22:58.642Z,12004.00
2019-04-28T08:23:58.544Z,12980.00
2019-04-28T08:24:58.459Z,12508.00
2019-04-28T08:25:58.341Z,10896.00
2019-04-28T08:26:58.244Z,10884.00
2019-04-28T08:27:58.253Z,11760.00
2019-04-28T08:28:58.054Z,11276.00
2019-04-28T08:29:58.918Z,10532.00
2019-04-28T08:30:57.852Z,10320.00
2019-04-28T08:31:57.770Z,10220.00
2019-04-28T08:32:57.662Z,9780.00
2019-04-28T08:34:02.742Z,9712.00
2019-04-28T08:34:57.476Z,10956.00
2019-04-28T08:35:57.671Z,11772.00
2019-04-28T08:36:57.264Z,11552.00
2019-04-28T08:37:57.171Z,12244.00
2019-04-28T08:38:57.069Z,12496.00
2019-04-28T08:39:56.987Z,12656.00
2019-04-28T08:40:56.873Z,12904.00
2019-04-28T08:41:57.019Z,13668.00
2019-04-28T08:42:56.678Z,14448.00
2019-04-28T08:43:56.582Z,14548.00
2019-04-28T08:44:56.483Z,15648.00
2019-04-28T08:45:56.401Z,17268.00
2019-04-28T08:46:56.291Z,19072.00
2019-04-28T08:47:58.012Z,19168.00
2019-04-28T08:48:56.194Z,16984.00
2019-04-28T08:49:56.006Z,15644.00
2019-04-28T08:50:55.909Z,14844.00
2019-04-28T08:51:55.798Z,15564.00
2019-04-28T08:52:55.701Z,16436.00
2019-04-28T08:53:55.601Z,15752.00
2019-04-28T08:54:55.506Z,16768.00
2019-04-28T08:55:55.536Z,19968.00
2019-04-28T08:56:55.310Z,19328.00
2019-04-28T08:57:55.210Z,18784.00
2019-04-28T08:58:55.111Z,18336.00
2019-04-28T08:59:55.012Z,16768.00
2019-04-28T09:00:54.933Z,14404.00
2019-04-28T09:01:54.821Z,12124.00
2019-04-28T09:02:54.830Z,11168.00
2019-04-28T09:03:54.625Z,11196.00
2019-04-28T09:04:54.531Z,10712.00
2019-04-28T09:05:54.444Z,9916.00
2019-04-28T09:06:54.334Z,9568.00
2019-04-28T09:07:54.235Z,9292.00
2019-04-28T09:08:54.147Z,8740.00
2019-04-28T09:09:54.158Z,8936.00
2019-04-28T09:10:53.958Z,9284.00
2019-04-28T09:11:53.849Z,9644.00
2019-04-28T09:12:53.749Z,9580.00
2019-04-28T09:13:53.650Z,9700.00
2019-04-28T09:14:53.555Z,9448.00
2019-04-28T09:15:53.471Z,9852.00
2019-04-28T09:16:53.358Z,9940.00
2019-04-28T09:17:53.259Z,9328.00
2019-04-28T09:18:53.163Z,8920.00
2019-04-28T09:19:53.065Z,8464.00
2019-04-28T09:20:52.982Z,8036.00
2019-04-28T09:21:52.869Z,7940.00
2019-04-28T09:22:52.773Z,8392.00
2019-04-28T09:23:52.674Z,8640.00
2019-04-28T09:24:52.576Z,8664.00
2019-04-28T09:25:52.495Z,8624.00
2019-04-28T09:26:52.381Z,8536.00
2019-04-28T09:27:52.282Z,8456.00
2019-04-28T09:28:52.185Z,8596.00
2019-04-28T09:29:52.087Z,8392.00
2019-04-28T09:30:52.006Z,7976.00
2019-04-28T09:31:51.896Z,8108.00
2019-04-28T09:32:51.795Z,8180.00
2019-04-28T09:33:51.697Z,8188.00
2019-04-28T09:34:51.598Z,8860.00
2019-04-28T09:35:51.523Z,10820.00
2019-04-28T09:36:51.404Z,11680.00
2019-04-28T09:37:51.306Z,11196.00
2019-04-28T09:38:51.209Z,11220.00
2019-04-28T09:39:51.108Z,11664.00
2019-04-28T09:40:51.013Z,11144.00
2019-04-28T09:41:50.928Z,11080.00
2019-04-28T09:42:50.816Z,12552.00
2019-04-28T09:43:50.719Z,13792.00
2019-04-28T09:44:50.621Z,14032.00
2019-04-28T09:45:50.529Z,12924.00
2019-04-28T09:46:50.441Z,11728.00
2019-04-28T09:47:50.328Z,10512.00
2019-04-28T09:48:50.231Z,9980.00
2019-04-28T09:49:50.134Z,9484.00
2019-04-28T09:50:50.036Z,9012.00
2019-04-28T09:51:49.954Z,8624.00
2019-04-28T09:52:49.838Z,8556.00
2019-04-28T09:53:49.740Z,9244.00
2019-04-28T09:54:49.644Z,10156.00
2019-04-28T09:55:49.545Z,10388.00
2019-04-28T09:56:56.583Z,10840.00
2019-04-28T09:57:49.348Z,10656.00
2019-04-28T09:58:49.251Z,10128.00
2019-04-28T09:59:49.155Z,10316.00
2019-04-28T10:00:49.068Z,10424.00
2019-04-28T10:01:48.974Z,10720.00
2019-04-28T10:02:48.860Z,11144.00
2019-04-28T10:03:48.765Z,11196.00
2019-04-28T10:04:48.665Z,11404.00
2019-04-28T10:05:48.566Z,12136.00
2019-04-28T10:06:48.481Z,12820.00
2019-04-28T10:07:48.377Z,12672.00
2019-04-28T10:08:48.275Z,12676.00
2019-04-28T10:09:48.177Z,13340.00
2019-04-28T10:10:48.077Z,12604.00
2019-04-28T10:11:47.995Z,12444.00
2019-04-28T10:12:47.883Z,12660.00
2019-04-28T10:13:47.783Z,12712.00
2019-04-28T10:14:47.686Z,12844.00
2019-04-28T10:15:47.589Z,13320.00
2019-04-28T10:16:47.508Z,13792.00
2019-04-28T10:17:47.394Z,14364.00
2019-04-28T10:18:47.399Z,15108.00
2019-04-28T10:19:47.212Z,15996.00
2019-04-28T10:20:47.099Z,16800.00
2019-04-28T10:21:47.018Z,17664.00
2019-04-28T10:22:46.906Z,17824.00
2019-04-28T10:23:46.810Z,18592.00
2019-04-28T10:24:46.711Z,19552.00
2019-04-28T10:25:46.611Z,20384.00
2019-04-28T10:26:46.519Z,20416.00
2019-04-28T10:27:46.433Z,20288.00
2019-04-28T10:28:46.321Z,20448.00
2019-04-28T10:29:46.224Z,21376.00
2019-04-28T10:30:46.127Z,22176.00
2019-04-28T10:31:46.029Z,23744.00
2019-04-28T10:32:45.945Z,23584.00
2019-04-28T10:33:45.833Z,23872.00
2019-04-28T10:34:54.744Z,23168.00
2019-04-28T10:35:45.638Z,21408.00
2019-04-28T10:36:45.542Z,18720.00
2019-04-28T10:37:45.753Z,16100.00
2019-04-28T10:38:45.348Z,14172.00
2019-04-28T10:39:45.370Z,14604.00
2019-04-28T10:40:45.155Z,16744.00
2019-04-28T10:41:45.057Z,17536.00
2019-04-28T10:42:44.976Z,17920.00
2019-04-28T10:43:44.862Z,16948.00
2019-04-28T10:44:44.766Z,16440.00
2019-04-28T10:45:44.667Z,16724.00
2019-04-28T10:46:44.674Z,18112.00
2019-04-28T10:47:44.490Z,19712.00
2019-04-28T10:48:44.380Z,20928.00
2019-04-28T10:49:44.282Z,21728.00
2019-04-28T10:50:44.185Z,22112.00
2019-04-28T10:51:44.087Z,21760.00
2019-04-28T10:52:44.012Z,20992.00
2019-04-28T10:53:44.000Z,20992.00
2019-04-28T10:54:43.795Z,21408.00
2019-04-28T10:55:43.698Z,21280.00
2019-04-28T10:56:43.605Z,20640.00
2019-04-28T10:57:43.519Z,19488.00
2019-04-28T10:58:43.408Z,18144.00
2019-04-28T10:59:43.311Z,17232.00
2019-04-28T11:00:43.323Z,16580.00
2019-04-28T11:01:43.117Z,15436.00
2019-04-28T11:02:43.039Z,14796.00
2019-04-28T11:03:42.925Z,14544.00
2019-04-28T11:04:42.830Z,14132.00
2019-04-28T11:05:42.732Z,14352.00
2019-04-28T11:06:42.634Z,14428.00
2019-04-28T11:07:42.649Z,13580.00
2019-04-28T11:08:42.441Z,12624.00
2019-04-28T11:09:42.347Z,12196.00
2019-04-28T11:10:42.246Z,12092.00
2019-04-28T11:11:42.150Z,12136.00
2019-04-28T11:12:42.069Z,12080.00
2019-04-28T11:13:41.966Z,11764.00
2019-04-28T11:14:41.968Z,11836.00
2019-04-28T11:15:41.771Z,12100.00
2019-04-28T11:16:41.667Z,11744.00
2019-04-28T11:17:41.572Z,10952.00
2019-04-28T11:18:41.487Z,10340.00
2019-04-28T11:19:41.375Z,10808.00
2019-04-28T11:20:41.281Z,10884.00
2019-04-28T11:21:41.282Z,10144.00
2019-04-28T11:22:41.086Z,9488.00
2019-04-28T11:23:41.005Z,9536.00
2019-04-28T11:24:40.891Z,9480.00
2019-04-28T11:25:40.797Z,9464.00
2019-04-28T11:26:40.698Z,10188.00
2019-04-28T11:27:40.603Z,10820.00
2019-04-28T11:28:40.610Z,11360.00
2019-04-28T11:29:40.407Z,12212.00
2019-04-28T11:30:40.309Z,12172.00
2019-04-28T11:31:40.213Z,10696.00
2019-04-28T11:32:40.117Z,9480.00
2019-04-28T11:33:40.039Z,9784.00
2019-04-28T11:34:39.923Z,11376.00
2019-04-28T11:35:39.929Z,13092.00
2019-04-28T11:36:39.728Z,14228.00
2019-04-28T11:37:39.641Z,14912.00
2019-04-28T11:38:39.550Z,14604.00
2019-04-28T11:39:39.440Z,13212.00
2019-04-28T11:40:39.344Z,11512.00
2019-04-28T11:41:39.247Z,11060.00
2019-04-28T11:42:39.251Z,11096.00
2019-04-28T11:43:39.064Z,11112.00
2019-04-28T11:44:38.958Z,10992.00
2019-04-28T11:45:38.855Z,10968.00
2019-04-28T11:46:38.757Z,11176.00
2019-04-28T11:47:38.681Z,11468.00
2019-04-28T11:48:38.581Z,11932.00
2019-04-28T11:49:38.470Z,12672.00
2019-04-28T11:50:38.371Z,14192.00
2019-04-28T11:51:38.272Z,16440.00
2019-04-28T11:52:38.175Z,17600.00
2019-04-28T11:53:38.094Z,18304.00
2019-04-28T11:54:37.988Z,17568.00
2019-04-28T11:55:37.884Z,17184.00
2019-04-28T11:56:41.482Z,18208.00
2019-04-28T11:57:37.690Z,19360.00
2019-04-28T11:58:37.594Z,21952.00
2019-04-28T11:59:37.512Z,23744.00
2019-04-28T12:00:37.406Z,24096.00
2019-04-28T12:01:37.301Z,24224.00
2019-04-28T12:02:37.205Z,26144.00
2019-04-28T12:03:37.112Z,30944.00
2019-04-28T12:04:37.027Z,34816.00
2019-04-28T12:05:38.426Z,32256.00
2019-04-28T12:06:36.819Z,32448.00
2019-04-28T12:07:36.726Z,33344.00
2019-04-28T12:08:36.627Z,35296.00
2019-04-28T12:09:36.550Z,34816.00
2019-04-28T12:10:36.431Z,32224.00
2019-04-28T12:11:36.336Z,32512.00
2019-04-28T12:12:36.241Z,31936.00
2019-04-28T12:13:36.145Z,37728.00
2019-04-28T12:14:36.066Z,40512.00
2019-04-28T12:15:35.954Z,37248.00
2019-04-28T12:16:35.856Z,38496.00
2019-04-28T12:17:35.760Z,43712.00
2019-04-28T12:18:35.668Z,38624.00
2019-04-28T12:19:35.585Z,35968.00
2019-04-28T12:20:35.474Z,33728.00